sensor_id;sensor_type;location;lat;lon;timestamp;P1;durP1;ratioP1;P2;durP2;ratioP2
46136;SDS011;31871;49.418;8.752;2022-10-17T00:01:40;15.05;;;2.67;;
46136;SDS011;31871;49.418;8.752;2022-10-17T00:04:05;14.52;;;3.05;;
46136;SDS011;31871;49.418;8.752;2022-10-17T00:06:31;23.27;;;3.10;;
46136;SDS011;31871;49.418;8.752;2022-10-17T00:08:56;8.95;;;3.00;;
46136;SDS011;31871;49.418;8.752;2022-10-17T00:11:22;6.65;;;3.45;;
46136;SDS011;31871;49.418;8.752;2022-10-17T00:13:49;13.35;;;3.00;;
46136;SDS011;31871;49.418;8.752;2022-10-17T00:16:36;5.65;;;2.30;;
46136;SDS011;31871;49.418;8.752;2022-10-17T00:19:02;12.02;;;2.53;;
46136;SDS011;31871;49.418;8.752;2022-10-17T00:21:29;11.45;;;2.75;;
46136;SDS011;31871;49.418;8.752;2022-10-17T00:23:54;13.77;;;2.85;;
46136;SDS011;31871;49.418;8.752;2022-10-17T00:26:20;10.32;;;2.72;;
46136;SDS011;31871;49.418;8.752;2022-10-17T00:28:49;7.38;;;2.90;;
46136;SDS011;31871;49.418;8.752;2022-10-17T00:31:16;20.50;;;2.60;;
46136;SDS011;31871;49.418;8.752;2022-10-17T00:33:44;9.57;;;2.58;;
46136;SDS011;31871;49.418;8.752;2022-10-17T00:36:14;18.42;;;2.58;;
46136;SDS011;31871;49.418;8.752;2022-10-17T00:38:45;11.57;;;3.10;;
46136;SDS011;31871;49.418;8.752;2022-10-17T00:41:14;10.77;;;2.92;;
46136;SDS011;31871;49.418;8.752;2022-10-17T00:46:14;20.98;;;2.70;;
46136;SDS011;31871;49.418;8.752;2022-10-17T00:48:39;12.70;;;3.05;;
46136;SDS011;31871;49.418;8.752;2022-10-17T00:51:05;22.70;;;2.75;;
46136;SDS011;31871;49.418;8.752;2022-10-17T00:53:31;7.47;;;2.50;;
46136;SDS011;31871;49.418;8.752;2022-10-17T00:55:58;3.88;;;2.35;;
46136;SDS011;31871;49.418;8.752;2022-10-17T00:58:24;10.05;;;2.47;;
46136;SDS011;31871;49.418;8.752;2022-10-17T01:00:49;4.82;;;2.20;;
46136;SDS011;31871;49.418;8.752;2022-10-17T01:03:15;6.60;;;2.53;;
46136;SDS011;31871;49.418;8.752;2022-10-17T01:05:40;11.50;;;2.53;;
46136;SDS011;31871;49.418;8.752;2022-10-17T01:08:06;6.63;;;2.40;;
46136;SDS011;31871;49.418;8.752;2022-10-17T01:10:39;24.35;;;2.35;;
46136;SDS011;31871;49.418;8.752;2022-10-17T01:13:51;38.47;;;2.80;;
46136;SDS011;31871;49.418;8.752;2022-10-17T01:21:55;17.20;;;2.65;;
46136;SDS011;31871;49.418;8.752;2022-10-17T01:24:32;13.95;;;2.40;;
46136;SDS011;31871;49.418;8.752;2022-10-17T01:32:55;46.50;;;2.53;;
46136;SDS011;31871;49.418;8.752;2022-10-17T01:35:31;6.28;;;2.15;;
46136;SDS011;31871;49.418;8.752;2022-10-17T01:40:44;8.40;;;3.08;;
46136;SDS011;31871;49.418;8.752;2022-10-17T01:43:28;6.72;;;2.30;;
46136;SDS011;31871;49.418;8.752;2022-10-17T01:48:33;8.18;;;2.65;;
46136;SDS011;31871;49.418;8.752;2022-10-17T01:51:08;5.18;;;2.65;;
46136;SDS011;31871;49.418;8.752;2022-10-17T01:53:42;19.92;;;2.42;;
46136;SDS011;31871;49.418;8.752;2022-10-17T01:56:28;15.93;;;3.10;;
46136;SDS011;31871;49.418;8.752;2022-10-17T01:58:56;15.07;;;2.10;;
46136;SDS011;31871;49.418;8.752;2022-10-17T02:01:27;24.60;;;3.45;;
46136;SDS011;31871;49.418;8.752;2022-10-17T02:03:54;29.80;;;2.40;;
46136;SDS011;31871;49.418;8.752;2022-10-17T02:06:22;16.33;;;2.40;;
46136;SDS011;31871;49.418;8.752;2022-10-17T02:08:48;13.35;;;2.22;;
46136;SDS011;31871;49.418;8.752;2022-10-17T02:16:48;7.82;;;2.00;;
46136;SDS011;31871;49.418;8.752;2022-10-17T02:19:49;12.95;;;2.20;;
46136;SDS011;31871;49.418;8.752;2022-10-17T02:22:39;9.90;;;1.73;;
46136;SDS011;31871;49.418;8.752;2022-10-17T02:27:52;7.47;;;2.00;;
46136;SDS011;31871;49.418;8.752;2022-10-17T02:32:57;8.02;;;2.00;;
46136;SDS011;31871;49.418;8.752;2022-10-17T02:35:34;9.68;;;1.90;;
46136;SDS011;31871;49.418;8.752;2022-10-17T02:38:04;5.43;;;1.83;;
46136;SDS011;31871;49.418;8.752;2022-10-17T02:40:31;4.70;;;1.73;;
46136;SDS011;31871;49.418;8.752;2022-10-17T02:42:58;7.03;;;2.30;;
46136;SDS011;31871;49.418;8.752;2022-10-17T02:45:25;5.68;;;1.92;;
46136;SDS011;31871;49.418;8.752;2022-10-17T02:48:00;12.40;;;2.03;;
46136;SDS011;31871;49.418;8.752;2022-10-17T02:53:05;5.40;;;2.17;;
46136;SDS011;31871;49.418;8.752;2022-10-17T02:55:38;12.20;;;2.03;;
46136;SDS011;31871;49.418;8.752;2022-10-17T02:58:22;9.18;;;2.03;;
46136;SDS011;31871;49.418;8.752;2022-10-17T03:00:52;13.67;;;2.23;;
46136;SDS011;31871;49.418;8.752;2022-10-17T03:03:19;3.70;;;1.80;;
46136;SDS011;31871;49.418;8.752;2022-10-17T03:05:49;5.75;;;2.05;;
46136;SDS011;31871;49.418;8.752;2022-10-17T03:08:16;7.15;;;2.13;;
46136;SDS011;31871;49.418;8.752;2022-10-17T03:10:42;17.30;;;2.50;;
46136;SDS011;31871;49.418;8.752;2022-10-17T03:13:07;14.02;;;2.22;;
46136;SDS011;31871;49.418;8.752;2022-10-17T03:15:33;14.27;;;2.55;;
46136;SDS011;31871;49.418;8.752;2022-10-17T03:17:58;11.80;;;1.98;;
46136;SDS011;31871;49.418;8.752;2022-10-17T03:20:24;4.38;;;1.98;;
46136;SDS011;31871;49.418;8.752;2022-10-17T03:22:49;17.25;;;2.58;;
46136;SDS011;31871;49.418;8.752;2022-10-17T03:25:15;3.22;;;1.92;;
46136;SDS011;31871;49.418;8.752;2022-10-17T03:27:41;8.23;;;2.17;;
46136;SDS011;31871;49.418;8.752;2022-10-17T03:30:06;9.02;;;2.50;;
46136;SDS011;31871;49.418;8.752;2022-10-17T03:32:33;9.13;;;2.30;;
46136;SDS011;31871;49.418;8.752;2022-10-17T03:34:58;4.05;;;2.10;;
46136;SDS011;31871;49.418;8.752;2022-10-17T03:37:24;8.15;;;2.05;;
46136;SDS011;31871;49.418;8.752;2022-10-17T03:39:49;6.20;;;1.90;;
46136;SDS011;31871;49.418;8.752;2022-10-17T03:42:15;10.25;;;2.05;;
46136;SDS011;31871;49.418;8.752;2022-10-17T03:44:41;7.20;;;2.50;;
46136;SDS011;31871;49.418;8.752;2022-10-17T03:47:06;9.90;;;2.50;;
46136;SDS011;31871;49.418;8.752;2022-10-17T03:49:32;14.65;;;2.08;;
46136;SDS011;31871;49.418;8.752;2022-10-17T03:51:57;5.55;;;1.92;;
46136;SDS011;31871;49.418;8.752;2022-10-17T03:54:23;18.30;;;2.63;;
46136;SDS011;31871;49.418;8.752;2022-10-17T03:56:48;5.95;;;2.13;;
46136;SDS011;31871;49.418;8.752;2022-10-17T03:59:14;14.40;;;2.50;;
46136;SDS011;31871;49.418;8.752;2022-10-17T04:01:40;10.85;;;2.30;;
46136;SDS011;31871;49.418;8.752;2022-10-17T04:04:07;5.13;;;2.38;;
46136;SDS011;31871;49.418;8.752;2022-10-17T04:06:33;10.13;;;2.38;;
46136;SDS011;31871;49.418;8.752;2022-10-17T04:08:59;7.88;;;2.05;;
46136;SDS011;31871;49.418;8.752;2022-10-17T04:11:25;9.93;;;1.90;;
46136;SDS011;31871;49.418;8.752;2022-10-17T04:13:51;8.60;;;2.15;;
46136;SDS011;31871;49.418;8.752;2022-10-17T04:16:18;3.10;;;1.83;;
46136;SDS011;31871;49.418;8.752;2022-10-17T04:18:44;20.20;;;2.50;;
46136;SDS011;31871;49.418;8.752;2022-10-17T04:21:11;16.63;;;2.65;;
46136;SDS011;31871;49.418;8.752;2022-10-17T04:23:37;10.43;;;2.50;;
46136;SDS011;31871;49.418;8.752;2022-10-17T04:26:04;10.70;;;2.33;;
46136;SDS011;31871;49.418;8.752;2022-10-17T04:28:30;26.10;;;2.60;;
46136;SDS011;31871;49.418;8.752;2022-10-17T04:31:14;7.65;;;2.53;;
46136;SDS011;31871;49.418;8.752;2022-10-17T04:33:40;10.80;;;2.38;;
46136;SDS011;31871;49.418;8.752;2022-10-17T04:36:09;7.65;;;2.38;;
46136;SDS011;31871;49.418;8.752;2022-10-17T04:38:36;10.68;;;2.60;;
46136;SDS011;31871;49.418;8.752;2022-10-17T04:41:03;13.02;;;2.17;;
46136;SDS011;31871;49.418;8.752;2022-10-17T04:43:31;12.40;;;2.35;;
46136;SDS011;31871;49.418;8.752;2022-10-17T04:45:58;4.78;;;2.17;;
46136;SDS011;31871;49.418;8.752;2022-10-17T04:48:25;4.88;;;1.98;;
46136;SDS011;31871;49.418;8.752;2022-10-17T04:50:52;13.35;;;2.53;;
46136;SDS011;31871;49.418;8.752;2022-10-17T04:53:22;7.97;;;2.75;;
46136;SDS011;31871;49.418;8.752;2022-10-17T04:55:48;9.10;;;2.70;;
46136;SDS011;31871;49.418;8.752;2022-10-17T04:58:14;9.52;;;2.45;;
46136;SDS011;31871;49.418;8.752;2022-10-17T05:00:40;5.45;;;3.03;;
46136;SDS011;31871;49.418;8.752;2022-10-17T05:03:05;5.57;;;2.60;;
46136;SDS011;31871;49.418;8.752;2022-10-17T05:05:31;10.90;;;2.50;;
46136;SDS011;31871;49.418;8.752;2022-10-17T05:07:57;2.97;;;1.90;;
46136;SDS011;31871;49.418;8.752;2022-10-17T05:10:22;3.97;;;2.03;;
46136;SDS011;31871;49.418;8.752;2022-10-17T05:12:48;9.43;;;2.45;;
46136;SDS011;31871;49.418;8.752;2022-10-17T05:15:14;3.28;;;1.88;;
46136;SDS011;31871;49.418;8.752;2022-10-17T05:17:40;3.90;;;1.98;;
46136;SDS011;31871;49.418;8.752;2022-10-17T05:20:06;8.15;;;2.70;;
46136;SDS011;31871;49.418;8.752;2022-10-17T05:22:32;10.35;;;2.35;;
46136;SDS011;31871;49.418;8.752;2022-10-17T05:24:57;8.55;;;2.55;;
46136;SDS011;31871;49.418;8.752;2022-10-17T05:27:23;9.75;;;2.20;;
46136;SDS011;31871;49.418;8.752;2022-10-17T05:29:49;5.93;;;2.15;;
46136;SDS011;31871;49.418;8.752;2022-10-17T05:32:14;10.05;;;2.33;;
46136;SDS011;31871;49.418;8.752;2022-10-17T05:34:40;9.45;;;2.40;;
46136;SDS011;31871;49.418;8.752;2022-10-17T05:37:06;4.53;;;2.00;;
46136;SDS011;31871;49.418;8.752;2022-10-17T05:39:31;7.10;;;2.10;;
46136;SDS011;31871;49.418;8.752;2022-10-17T05:41:57;4.68;;;2.65;;
46136;SDS011;31871;49.418;8.752;2022-10-17T05:44:22;6.13;;;2.28;;
46136;SDS011;31871;49.418;8.752;2022-10-17T05:46:48;3.83;;;2.33;;
46136;SDS011;31871;49.418;8.752;2022-10-17T05:49:14;4.32;;;2.00;;
46136;SDS011;31871;49.418;8.752;2022-10-17T05:51:40;7.47;;;2.45;;
46136;SDS011;31871;49.418;8.752;2022-10-17T05:54:06;8.02;;;2.35;;
46136;SDS011;31871;49.418;8.752;2022-10-17T05:56:32;4.82;;;2.20;;
46136;SDS011;31871;49.418;8.752;2022-10-17T05:58:58;14.55;;;2.72;;
46136;SDS011;31871;49.418;8.752;2022-10-17T06:01:24;9.57;;;2.75;;
46136;SDS011;31871;49.418;8.752;2022-10-17T06:03:50;6.97;;;2.40;;
46136;SDS011;31871;49.418;8.752;2022-10-17T06:06:15;4.15;;;2.60;;
46136;SDS011;31871;49.418;8.752;2022-10-17T06:08:41;11.93;;;2.70;;
46136;SDS011;31871;49.418;8.752;2022-10-17T06:11:08;6.35;;;2.53;;
46136;SDS011;31871;49.418;8.752;2022-10-17T06:13:34;4.38;;;2.40;;
46136;SDS011;31871;49.418;8.752;2022-10-17T06:16:00;10.30;;;2.50;;
46136;SDS011;31871;49.418;8.752;2022-10-17T06:18:25;8.98;;;2.70;;
46136;SDS011;31871;49.418;8.752;2022-10-17T06:20:51;7.38;;;3.10;;
46136;SDS011;31871;49.418;8.752;2022-10-17T06:23:17;8.98;;;2.92;;
46136;SDS011;31871;49.418;8.752;2022-10-17T06:25:42;9.93;;;2.42;;
46136;SDS011;31871;49.418;8.752;2022-10-17T06:28:08;4.70;;;2.65;;
46136;SDS011;31871;49.418;8.752;2022-10-17T06:30:36;8.05;;;2.83;;
46136;SDS011;31871;49.418;8.752;2022-10-17T06:33:03;5.32;;;2.78;;
46136;SDS011;31871;49.418;8.752;2022-10-17T06:35:29;7.80;;;2.40;;
46136;SDS011;31871;49.418;8.752;2022-10-17T06:37:55;13.07;;;2.72;;
46136;SDS011;31871;49.418;8.752;2022-10-17T06:40:20;11.35;;;2.60;;
46136;SDS011;31871;49.418;8.752;2022-10-17T06:42:46;4.20;;;2.50;;
46136;SDS011;31871;49.418;8.752;2022-10-17T06:45:12;7.32;;;3.03;;
46136;SDS011;31871;49.418;8.752;2022-10-17T06:47:37;3.95;;;2.65;;
46136;SDS011;31871;49.418;8.752;2022-10-17T06:50:03;6.25;;;2.67;;
46136;SDS011;31871;49.418;8.752;2022-10-17T06:52:29;15.55;;;2.72;;
46136;SDS011;31871;49.418;8.752;2022-10-17T06:54:54;4.90;;;2.60;;
46136;SDS011;31871;49.418;8.752;2022-10-17T06:57:20;7.93;;;2.78;;
46136;SDS011;31871;49.418;8.752;2022-10-17T06:59:46;5.13;;;2.75;;
46136;SDS011;31871;49.418;8.752;2022-10-17T07:02:12;7.07;;;2.63;;
46136;SDS011;31871;49.418;8.752;2022-10-17T07:04:37;5.00;;;2.70;;
46136;SDS011;31871;49.418;8.752;2022-10-17T07:07:03;7.97;;;2.70;;
46136;SDS011;31871;49.418;8.752;2022-10-17T07:09:29;5.72;;;2.53;;
46136;SDS011;31871;49.418;8.752;2022-10-17T07:11:56;9.15;;;2.45;;
46136;SDS011;31871;49.418;8.752;2022-10-17T07:14:22;6.53;;;2.70;;
46136;SDS011;31871;49.418;8.752;2022-10-17T07:16:55;7.25;;;2.92;;
46136;SDS011;31871;49.418;8.752;2022-10-17T07:19:24;7.95;;;2.97;;
46136;SDS011;31871;49.418;8.752;2022-10-17T07:21:51;5.10;;;3.03;;
46136;SDS011;31871;49.418;8.752;2022-10-17T07:24:17;4.07;;;2.28;;
46136;SDS011;31871;49.418;8.752;2022-10-17T07:26:42;17.98;;;2.88;;
46136;SDS011;31871;49.418;8.752;2022-10-17T07:29:08;5.45;;;2.80;;
46136;SDS011;31871;49.418;8.752;2022-10-17T07:31:34;4.47;;;2.95;;
46136;SDS011;31871;49.418;8.752;2022-10-17T07:34:00;4.53;;;2.58;;
46136;SDS011;31871;49.418;8.752;2022-10-17T07:36:26;5.10;;;2.60;;
46136;SDS011;31871;49.418;8.752;2022-10-17T07:38:51;18.75;;;3.80;;
46136;SDS011;31871;49.418;8.752;2022-10-17T07:41:17;14.10;;;2.55;;
46136;SDS011;31871;49.418;8.752;2022-10-17T07:43:43;9.82;;;2.88;;
46136;SDS011;31871;49.418;8.752;2022-10-17T07:46:09;16.15;;;2.70;;
46136;SDS011;31871;49.418;8.752;2022-10-17T07:48:36;7.65;;;2.58;;
46136;SDS011;31871;49.418;8.752;2022-10-17T07:51:05;3.22;;;2.00;;
46136;SDS011;31871;49.418;8.752;2022-10-17T07:53:36;4.15;;;2.30;;
46136;SDS011;31871;49.418;8.752;2022-10-17T07:56:06;3.58;;;2.30;;
46136;SDS011;31871;49.418;8.752;2022-10-17T07:58:33;5.72;;;2.38;;
46136;SDS011;31871;49.418;8.752;2022-10-17T08:01:00;13.60;;;2.35;;
46136;SDS011;31871;49.418;8.752;2022-10-17T08:03:26;5.43;;;2.80;;
46136;SDS011;31871;49.418;8.752;2022-10-17T08:05:55;3.58;;;2.30;;
46136;SDS011;31871;49.418;8.752;2022-10-17T08:08:21;8.32;;;2.17;;
46136;SDS011;31871;49.418;8.752;2022-10-17T08:10:47;15.20;;;2.50;;
46136;SDS011;31871;49.418;8.752;2022-10-17T08:13:12;5.32;;;2.03;;
46136;SDS011;31871;49.418;8.752;2022-10-17T08:15:38;7.13;;;2.20;;
46136;SDS011;31871;49.418;8.752;2022-10-17T08:18:04;15.82;;;2.40;;
46136;SDS011;31871;49.418;8.752;2022-10-17T08:20:29;6.97;;;1.90;;
46136;SDS011;31871;49.418;8.752;2022-10-17T08:22:55;6.38;;;1.83;;
46136;SDS011;31871;49.418;8.752;2022-10-17T08:25:20;11.57;;;1.92;;
46136;SDS011;31871;49.418;8.752;2022-10-17T08:27:46;18.67;;;3.10;;
46136;SDS011;31871;49.418;8.752;2022-10-17T08:30:13;7.90;;;1.90;;
46136;SDS011;31871;49.418;8.752;2022-10-17T08:32:38;8.35;;;2.00;;
46136;SDS011;31871;49.418;8.752;2022-10-17T08:35:04;7.15;;;2.35;;
46136;SDS011;31871;49.418;8.752;2022-10-17T08:37:30;8.70;;;2.10;;
46136;SDS011;31871;49.418;8.752;2022-10-17T08:39:56;4.88;;;2.30;;
46136;SDS011;31871;49.418;8.752;2022-10-17T08:47:59;4.95;;;1.63;;
46136;SDS011;31871;49.418;8.752;2022-10-17T08:50:46;13.45;;;1.98;;
46136;SDS011;31871;49.418;8.752;2022-10-17T08:56:12;2.45;;;1.55;;
46136;SDS011;31871;49.418;8.752;2022-10-17T08:58:40;7.47;;;1.80;;
46136;SDS011;31871;49.418;8.752;2022-10-17T09:04:00;4.97;;;1.67;;
46136;SDS011;31871;49.418;8.752;2022-10-17T09:06:37;9.23;;;2.30;;
46136;SDS011;31871;49.418;8.752;2022-10-17T09:22:36;4.80;;;1.52;;
46136;SDS011;31871;49.418;8.752;2022-10-17T09:25:15;6.93;;;2.22;;
46136;SDS011;31871;49.418;8.752;2022-10-17T09:33:10;7.05;;;1.83;;
46136;SDS011;31871;49.418;8.752;2022-10-17T09:35:43;6.57;;;2.03;;
46136;SDS011;31871;49.418;8.752;2022-10-17T09:38:21;8.13;;;1.45;;
46136;SDS011;31871;49.418;8.752;2022-10-17T09:40:56;8.38;;;1.75;;
46136;SDS011;31871;49.418;8.752;2022-10-17T09:43:24;15.93;;;2.05;;
46136;SDS011;31871;49.418;8.752;2022-10-17T09:45:58;8.48;;;2.42;;
46136;SDS011;31871;49.418;8.752;2022-10-17T09:48:44;4.75;;;1.55;;
46136;SDS011;31871;49.418;8.752;2022-10-17T09:51:34;7.43;;;1.65;;
46136;SDS011;31871;49.418;8.752;2022-10-17T09:54:06;3.22;;;1.90;;
46136;SDS011;31871;49.418;8.752;2022-10-17T09:57:01;18.73;;;1.52;;
46136;SDS011;31871;49.418;8.752;2022-10-17T09:59:36;12.75;;;1.90;;
46136;SDS011;31871;49.418;8.752;2022-10-17T10:07:24;8.60;;;1.73;;
46136;SDS011;31871;49.418;8.752;2022-10-17T10:09:53;4.47;;;1.83;;
46136;SDS011;31871;49.418;8.752;2022-10-17T10:14:49;3.00;;;1.60;;
46136;SDS011;31871;49.418;8.752;2022-10-17T10:23:12;5.78;;;1.63;;
46136;SDS011;31871;49.418;8.752;2022-10-17T10:25:47;7.18;;;1.67;;
46136;SDS011;31871;49.418;8.752;2022-10-17T10:28:17;3.35;;;1.80;;
46136;SDS011;31871;49.418;8.752;2022-10-17T10:30:47;2.72;;;1.48;;
46136;SDS011;31871;49.418;8.752;2022-10-17T10:33:15;16.00;;;1.95;;
46136;SDS011;31871;49.418;8.752;2022-10-17T10:35:44;11.82;;;1.92;;
46136;SDS011;31871;49.418;8.752;2022-10-17T10:38:19;11.35;;;1.98;;
46136;SDS011;31871;49.418;8.752;2022-10-17T10:40:49;20.27;;;2.00;;
46136;SDS011;31871;49.418;8.752;2022-10-17T10:45:54;12.20;;;1.77;;
46136;SDS011;31871;49.418;8.752;2022-10-17T10:48:21;5.82;;;1.60;;
46136;SDS011;31871;49.418;8.752;2022-10-17T10:50:55;16.52;;;1.80;;
46136;SDS011;31871;49.418;8.752;2022-10-17T10:56:25;8.10;;;1.80;;
46136;SDS011;31871;49.418;8.752;2022-10-17T11:04:11;8.65;;;1.52;;
46136;SDS011;31871;49.418;8.752;2022-10-17T11:07:01;4.80;;;1.73;;
46136;SDS011;31871;49.418;8.752;2022-10-17T11:09:52;3.13;;;1.50;;
46136;SDS011;31871;49.418;8.752;2022-10-17T11:12:45;2.60;;;1.20;;
46136;SDS011;31871;49.418;8.752;2022-10-17T11:15:39;8.45;;;1.95;;
46136;SDS011;31871;49.418;8.752;2022-10-17T11:18:39;14.00;;;1.73;;
46136;SDS011;31871;49.418;8.752;2022-10-17T11:23:55;3.50;;;1.48;;
46136;SDS011;31871;49.418;8.752;2022-10-17T11:26:28;18.17;;;1.70;;
46136;SDS011;31871;49.418;8.752;2022-10-17T11:28:56;10.30;;;1.50;;
46136;SDS011;31871;49.418;8.752;2022-10-17T11:31:39;5.05;;;1.63;;
46136;SDS011;31871;49.418;8.752;2022-10-17T11:34:13;10.90;;;1.92;;
46136;SDS011;31871;49.418;8.752;2022-10-17T11:36:43;8.15;;;1.75;;
46136;SDS011;31871;49.418;8.752;2022-10-17T11:39:15;9.45;;;1.60;;
46136;SDS011;31871;49.418;8.752;2022-10-17T11:44:22;9.75;;;1.80;;
46136;SDS011;31871;49.418;8.752;2022-10-17T11:46:55;2.58;;;1.52;;
46136;SDS011;31871;49.418;8.752;2022-10-17T11:49:25;3.65;;;1.80;;
46136;SDS011;31871;49.418;8.752;2022-10-17T11:54:32;3.03;;;1.52;;
46136;SDS011;31871;49.418;8.752;2022-10-17T12:05:51;12.63;;;1.85;;
46136;SDS011;31871;49.418;8.752;2022-10-17T12:08:30;4.80;;;1.90;;
46136;SDS011;31871;49.418;8.752;2022-10-17T12:18:44;6.80;;;1.90;;
46136;SDS011;31871;49.418;8.752;2022-10-17T12:24:33;10.38;;;1.88;;
46136;SDS011;31871;49.418;8.752;2022-10-17T12:29:46;6.72;;;1.55;;
46136;SDS011;31871;49.418;8.752;2022-10-17T12:32:12;6.28;;;2.10;;
46136;SDS011;31871;49.418;8.752;2022-10-17T12:34:39;12.95;;;1.70;;
46136;SDS011;31871;49.418;8.752;2022-10-17T12:42:59;13.35;;;2.60;;
46136;SDS011;31871;49.418;8.752;2022-10-17T12:50:59;16.83;;;2.10;;
46136;SDS011;31871;49.418;8.752;2022-10-17T12:53:25;12.75;;;1.70;;
46136;SDS011;31871;49.418;8.752;2022-10-17T12:56:05;8.00;;;1.60;;
46136;SDS011;31871;49.418;8.752;2022-10-17T12:58:31;4.70;;;1.63;;
46136;SDS011;31871;49.418;8.752;2022-10-17T13:00:59;2.58;;;1.65;;
46136;SDS011;31871;49.418;8.752;2022-10-17T13:03:25;5.45;;;1.58;;
46136;SDS011;31871;49.418;8.752;2022-10-17T13:06:00;6.32;;;1.83;;
46136;SDS011;31871;49.418;8.752;2022-10-17T13:08:47;5.30;;;1.73;;
46136;SDS011;31871;49.418;8.752;2022-10-17T13:11:21;16.88;;;2.17;;
46136;SDS011;31871;49.418;8.752;2022-10-17T13:13:51;4.63;;;2.08;;
46136;SDS011;31871;49.418;8.752;2022-10-17T13:16:53;7.13;;;1.92;;
46136;SDS011;31871;49.418;8.752;2022-10-17T13:19:29;17.40;;;3.10;;
46136;SDS011;31871;49.418;8.752;2022-10-17T13:22:03;7.90;;;2.00;;
46136;SDS011;31871;49.418;8.752;2022-10-17T13:24:45;17.67;;;2.17;;
46136;SDS011;31871;49.418;8.752;2022-10-17T13:27:29;9.63;;;2.05;;
46136;SDS011;31871;49.418;8.752;2022-10-17T13:29:56;7.70;;;2.78;;
46136;SDS011;31871;49.418;8.752;2022-10-17T13:32:23;10.27;;;1.70;;
46136;SDS011;31871;49.418;8.752;2022-10-17T13:35:06;15.85;;;2.00;;
46136;SDS011;31871;49.418;8.752;2022-10-17T13:37:35;4.68;;;1.70;;
46136;SDS011;31871;49.418;8.752;2022-10-17T13:40:02;15.60;;;2.55;;
46136;SDS011;31871;49.418;8.752;2022-10-17T13:42:29;7.00;;;2.08;;
46136;SDS011;31871;49.418;8.752;2022-10-17T13:45:00;11.27;;;2.40;;
46136;SDS011;31871;49.418;8.752;2022-10-17T13:47:27;10.05;;;1.77;;
46136;SDS011;31871;49.418;8.752;2022-10-17T13:49:56;10.65;;;1.92;;
46136;SDS011;31871;49.418;8.752;2022-10-17T13:52:23;14.75;;;1.67;;
46136;SDS011;31871;49.418;8.752;2022-10-17T13:54:51;4.68;;;1.80;;
46136;SDS011;31871;49.418;8.752;2022-10-17T13:57:27;6.65;;;1.85;;
46136;SDS011;31871;49.418;8.752;2022-10-17T13:59:58;17.55;;;2.25;;
46136;SDS011;31871;49.418;8.752;2022-10-17T14:02:26;10.68;;;2.08;;
46136;SDS011;31871;49.418;8.752;2022-10-17T14:07:34;13.43;;;2.10;;
46136;SDS011;31871;49.418;8.752;2022-10-17T14:10:04;3.78;;;1.88;;
46136;SDS011;31871;49.418;8.752;2022-10-17T14:12:38;8.02;;;2.15;;
46136;SDS011;31871;49.418;8.752;2022-10-17T14:15:08;8.73;;;1.90;;
46136;SDS011;31871;49.418;8.752;2022-10-17T14:17:39;16.60;;;1.83;;
46136;SDS011;31871;49.418;8.752;2022-10-17T14:20:05;8.82;;;2.03;;
46136;SDS011;31871;49.418;8.752;2022-10-17T14:22:33;15.40;;;2.05;;
46136;SDS011;31871;49.418;8.752;2022-10-17T14:25:00;21.58;;;2.78;;
46136;SDS011;31871;49.418;8.752;2022-10-17T14:27:36;14.15;;;2.40;;
46136;SDS011;31871;49.418;8.752;2022-10-17T14:32:56;14.70;;;2.30;;
46136;SDS011;31871;49.418;8.752;2022-10-17T14:35:23;21.90;;;2.40;;
46136;SDS011;31871;49.418;8.752;2022-10-17T14:37:50;10.63;;;1.98;;
46136;SDS011;31871;49.418;8.752;2022-10-17T14:40:22;11.48;;;2.72;;
46136;SDS011;31871;49.418;8.752;2022-10-17T14:42:49;8.85;;;1.83;;
46136;SDS011;31871;49.418;8.752;2022-10-17T14:45:25;25.85;;;2.33;;
46136;SDS011;31871;49.418;8.752;2022-10-17T14:47:54;14.48;;;2.30;;
46136;SDS011;31871;49.418;8.752;2022-10-17T14:50:26;13.23;;;2.40;;
46136;SDS011;31871;49.418;8.752;2022-10-17T15:00:52;9.73;;;2.30;;
46136;SDS011;31871;49.418;8.752;2022-10-17T15:03:18;24.45;;;2.55;;
46136;SDS011;31871;49.418;8.752;2022-10-17T15:05:45;6.60;;;1.98;;
46136;SDS011;31871;49.418;8.752;2022-10-17T15:08:14;13.00;;;2.10;;
46136;SDS011;31871;49.418;8.752;2022-10-17T15:10:42;9.55;;;2.60;;
46136;SDS011;31871;49.418;8.752;2022-10-17T15:13:09;12.68;;;2.35;;
46136;SDS011;31871;49.418;8.752;2022-10-17T15:15:35;13.75;;;2.55;;
46136;SDS011;31871;49.418;8.752;2022-10-17T15:18:02;22.83;;;2.22;;
46136;SDS011;31871;49.418;8.752;2022-10-17T15:20:28;19.35;;;2.40;;
46136;SDS011;31871;49.418;8.752;2022-10-17T15:22:55;10.45;;;2.10;;
46136;SDS011;31871;49.418;8.752;2022-10-17T15:25:23;13.50;;;2.38;;
46136;SDS011;31871;49.418;8.752;2022-10-17T15:27:49;21.70;;;2.75;;
46136;SDS011;31871;49.418;8.752;2022-10-17T15:30:26;18.73;;;2.53;;
46136;SDS011;31871;49.418;8.752;2022-10-17T15:32:53;10.35;;;2.25;;
46136;SDS011;31871;49.418;8.752;2022-10-17T15:35:19;15.77;;;2.30;;
46136;SDS011;31871;49.418;8.752;2022-10-17T15:37:46;7.57;;;2.28;;
46136;SDS011;31871;49.418;8.752;2022-10-17T15:40:13;11.45;;;2.70;;
46136;SDS011;31871;49.418;8.752;2022-10-17T15:42:43;8.23;;;2.30;;
46136;SDS011;31871;49.418;8.752;2022-10-17T15:45:09;16.17;;;2.67;;
46136;SDS011;31871;49.418;8.752;2022-10-17T15:47:36;13.40;;;2.30;;
46136;SDS011;31871;49.418;8.752;2022-10-17T15:50:03;23.30;;;2.47;;
46136;SDS011;31871;49.418;8.752;2022-10-17T15:52:30;10.15;;;2.70;;
46136;SDS011;31871;49.418;8.752;2022-10-17T15:54:55;28.17;;;3.20;;
46136;SDS011;31871;49.418;8.752;2022-10-17T15:57:25;8.60;;;3.00;;
46136;SDS011;31871;49.418;8.752;2022-10-17T15:59:53;33.42;;;4.18;;
46136;SDS011;31871;49.418;8.752;2022-10-17T16:02:21;9.60;;;2.42;;
46136;SDS011;31871;49.418;8.752;2022-10-17T16:04:47;10.02;;;2.90;;
46136;SDS011;31871;49.418;8.752;2022-10-17T16:07:14;20.30;;;5.10;;
46136;SDS011;31871;49.418;8.752;2022-10-17T16:09:40;14.75;;;3.70;;
46136;SDS011;31871;49.418;8.752;2022-10-17T16:12:09;20.58;;;2.80;;
46136;SDS011;31871;49.418;8.752;2022-10-17T16:14:43;12.07;;;2.83;;
46136;SDS011;31871;49.418;8.752;2022-10-17T16:17:11;13.32;;;2.78;;
46136;SDS011;31871;49.418;8.752;2022-10-17T16:19:38;18.08;;;3.05;;
46136;SDS011;31871;49.418;8.752;2022-10-17T16:22:03;8.00;;;3.22;;
46136;SDS011;31871;49.418;8.752;2022-10-17T16:24:30;15.40;;;2.80;;
46136;SDS011;31871;49.418;8.752;2022-10-17T16:26:56;14.18;;;3.03;;
46136;SDS011;31871;49.418;8.752;2022-10-17T16:29:22;12.70;;;2.65;;
46136;SDS011;31871;49.418;8.752;2022-10-17T16:31:47;12.80;;;2.20;;
46136;SDS011;31871;49.418;8.752;2022-10-17T16:34:13;23.17;;;3.25;;
46136;SDS011;31871;49.418;8.752;2022-10-17T16:36:40;20.17;;;3.00;;
46136;SDS011;31871;49.418;8.752;2022-10-17T16:39:06;15.32;;;2.80;;
46136;SDS011;31871;49.418;8.752;2022-10-17T16:41:33;13.90;;;2.20;;
46136;SDS011;31871;49.418;8.752;2022-10-17T16:44:02;17.35;;;2.95;;
46136;SDS011;31871;49.418;8.752;2022-10-17T16:46:30;9.32;;;2.65;;
46136;SDS011;31871;49.418;8.752;2022-10-17T16:48:57;17.45;;;2.92;;
46136;SDS011;31871;49.418;8.752;2022-10-17T16:51:23;19.83;;;2.83;;
46136;SDS011;31871;49.418;8.752;2022-10-17T16:53:49;18.23;;;3.05;;
46136;SDS011;31871;49.418;8.752;2022-10-17T16:56:18;14.90;;;2.67;;
46136;SDS011;31871;49.418;8.752;2022-10-17T16:58:45;16.23;;;3.38;;
46136;SDS011;31871;49.418;8.752;2022-10-17T17:01:15;12.63;;;2.95;;
46136;SDS011;31871;49.418;8.752;2022-10-17T17:03:43;12.15;;;3.10;;
46136;SDS011;31871;49.418;8.752;2022-10-17T17:06:13;19.05;;;2.90;;
46136;SDS011;31871;49.418;8.752;2022-10-17T17:08:43;17.45;;;3.30;;
46136;SDS011;31871;49.418;8.752;2022-10-17T17:11:10;17.63;;;2.83;;
46136;SDS011;31871;49.418;8.752;2022-10-17T17:13:37;11.77;;;3.80;;
46136;SDS011;31871;49.418;8.752;2022-10-17T17:16:04;11.77;;;3.60;;